Latest Weather Observations for Canterbury

IDN60801

Issued at 8:32 pm EDT Thursday 21 February 2019 (issued every 10 minutes, with the page automatically refreshed every 10 minutes)

About weather observations | Map of weather stations | Latest weather observations for NSW | Other Formats
Station Details ID: 066194 Name: CANTERBURY RACECOURSE AWS Lat: -33.91 Lon: 151.11 Height: 3.0 m
Data from the previous 72 hours. | See also: Recent months at Canterbury
Date/Time
EDT
Temp
°C
App
Temp
°C
Dew
Point
°C
Rel
Hum
%
Delta-T
°C
Wind Press
QNH
hPa
Press
MSL
hPa
Rain since
9am
mm
Dir  Spd
km/h
Gust
km/h
Spd
kts
Gust
kts
21/08:30pm 20.4 20.6 16.8 80 2.2 S 11 20 6 11 - - 0.2
21/08:00pm 20.5 19.9 16.7 79 2.3 S 15 20 8 11 - - 0.2
21/07:30pm 20.5 20.1 17.1 81 2.1 S 15 26 8 14 - - 0.2
21/07:00pm 20.4 20.3 17.8 85 1.6 SSE 15 26 8 14 - - 0.2
21/06:30pm 20.1 20.4 17.9 87 1.4 SSE 13 22 7 12 - - 0.2
21/06:00pm 20.1 19.6 17.9 87 1.4 S 17 30 9 16 - - 0.2
21/05:30pm 20.6 19.5 17.4 82 2.0 SSE 19 30 10 16 - - 0.2
21/05:00pm 21.6 20.9 17.4 77 2.6 SSE 17 26 9 14 - - 0.2
21/04:30pm 21.7 20.6 17.3 76 2.7 S 19 30 10 16 - - 0.2
21/04:00pm 22.8 21.7 17.7 73 3.2 SSE 20 28 11 15 - - 0.2
21/03:30pm 23.1 22.9 17.6 71 3.4 SSE 15 24 8 13 - - 0.0
21/03:00pm 22.9 21.7 17.1 70 3.6 SSE 19 30 10 16 - - 0.0
21/02:30pm 22.6 21.3 17.3 72 3.3 SSE 20 32 11 17 - - 0.0
21/02:00pm 23.1 22.0 17.3 70 3.6 SSE 19 28 10 15 - - 0.0
21/01:30pm 23.3 22.3 17.5 70 3.6 SSE 19 30 10 16 - - 0.0
21/01:00pm 22.7 22.0 17.4 72 3.3 SSE 17 28 9 15 - - 0.0
21/12:30pm 22.3 21.2 17.2 73 3.1 SSE 19 26 10 14 - - 0.0
21/12:00pm 22.3 21.8 17.7 75 2.9 SSE 17 30 9 16 - - 0.0
21/11:30am 22.3 21.8 17.7 75 2.9 SSE 17 24 9 13 - - 0.0
21/11:00am 22.3 22.9 18.5 79 2.4 SSE 13 20 7 11 - - 0.0
21/10:30am 21.8 21.8 18.2 80 2.2 SSE 15 22 8 12 - - 0.0
21/10:00am 20.9 22.4 18.8 88 1.3 S 9 13 5 7 - - 0.0
21/09:30am 20.2 20.6 18.1 88 1.3 SSE 13 26 7 14 - - 0.0
21/09:00am 20.3 20.5 18.6 90 1.1 SSE 15 20 8 11 - - 0.2
21/08:30am 20.1 20.6 18.4 90 1.1 SSE 13 22 7 12 - - 0.2
21/08:00am 20.0 20.1 18.3 90 1.1 S 15 22 8 12 - - 0.2
21/07:30am 20.4 20.7 18.0 86 1.5 S 13 26 7 14 - - 0.0
21/07:00am 20.4 21.1 18.0 86 1.5 SSE 11 20 6 11 - - 0.0
21/06:30am 20.5 20.8 17.9 85 1.6 S 13 20 7 11 - - 0.0
21/06:00am 20.9 21.2 17.9 83 1.9 SSE 13 17 7 9 - - 0.0
21/05:30am 20.8 20.7 17.8 83 1.9 SSE 15 22 8 12 - - 0.0
21/05:00am 21.6 21.9 17.8 79 2.4 S 13 26 7 14 - - 0.0
21/04:30am 22.1 22.4 17.9 77 2.6 SE 13 19 7 10 - - 0.0
21/04:00am 22.0 22.0 17.2 74 2.9 SE 13 19 7 10 - - 0.0
21/03:30am 22.2 21.4 17.1 73 3.1 SE 17 28 9 15 - - 0.0
21/03:00am 22.3 20.8 16.8 71 3.4 ESE 20 33 11 18 - - 0.0
21/02:30am 22.4 21.0 17.1 72 3.3 ESE 20 28 11 15 - - 0.0
21/02:00am 22.5 21.4 17.2 72 3.3 SE 19 28 10 15 - - 0.0
21/01:30am 22.4 21.8 17.5 74 3.0 SE 17 28 9 15 - - 0.0
21/01:00am 22.4 22.0 18.0 76 2.7 SE 17 26 9 14 - - 0.0
21/12:30am 22.2 23.4 19.0 82 2.0 SSE 11 17 6 9 - - 0.0
21/12:00am 22.3 23.6 19.3 83 1.9 SSE 11 22 6 12 - - 0.0
 
Date/Time
EDT
Temp
°C
App
Temp
°C
Dew
Point
°C
Rel
Hum
%
Delta-T
°C
Wind Press
QNH
hPa
Press
MSL
hPa
Rain since
9am
mm
Dir  Spd
km/h
Gust
km/h
Spd
kts
Gust
kts
20/11:30pm 22.2 23.2 19.4 84 1.8 SE 13 19 7 10 - - 0.0
20/11:00pm 22.2 23.2 19.4 84 1.8 SSE 13 24 7 13 - - 0.0
20/10:30pm 22.2 22.4 19.4 84 1.8 SE 17 22 9 12 - - 0.0
20/10:00pm 22.2 22.5 19.6 85 1.7 SE 17 28 9 15 - - 0.0
20/09:30pm 22.2 22.0 19.4 84 1.8 SE 19 26 10 14 - - 0.0
20/09:00pm 22.2 22.5 19.6 85 1.7 ESE 17 28 9 15 - - 0.0
20/08:30pm 21.4 23.1 19.3 88 1.3 S 9 13 5 7 - - 0.0
20/08:00pm 21.1 22.3 19.0 88 1.3 SSE 11 20 6 11 - - 0.0
20/07:30pm 21.1 22.0 19.2 89 1.2 S 13 22 7 12 - - 0.0
20/07:00pm 20.8 21.6 19.1 90 1.1 S 13 20 7 11 - - 0.0
20/06:30pm 20.8 21.0 18.6 87 1.4 SSE 15 24 8 13 - - 0.0
20/06:00pm 21.0 20.7 18.2 84 1.7 S 17 30 9 16 - - 0.0
20/05:30pm 21.0 20.2 18.0 83 1.9 SSE 19 30 10 16 - - 0.0
20/05:00pm 21.5 20.6 17.7 79 2.3 SSE 19 33 10 18 - - 0.0
20/04:30pm 22.0 21.1 17.8 77 2.6 S 19 28 10 15 - - 0.0
20/04:00pm 21.4 21.3 17.8 80 2.2 SSE 15 28 8 15 - - 0.0
20/03:30pm 21.5 20.3 17.5 78 2.5 SSE 20 30 11 16 - - 0.0
20/03:00pm 21.9 21.1 17.9 78 2.5 S 19 32 10 17 - - 0.0
20/02:30pm 22.3 22.0 18.3 78 2.5 S 17 26 9 14 - - 0.0
20/02:00pm 22.0 21.6 18.0 78 2.5 S 17 28 9 15 - - 0.0
20/01:30pm 21.2 20.7 17.8 81 2.1 S 17 26 9 14 - - 0.0
20/01:00pm 21.0 20.9 17.8 82 2.0 S 15 26 8 14 - - 0.0
20/12:30pm 21.1 20.7 18.1 83 1.9 SSE 17 24 9 13 - - 0.0
20/12:00pm 20.8 21.1 18.0 84 1.7 S 13 22 7 12 - - 0.0
20/11:30am 20.7 21.5 18.1 85 1.6 S 11 19 6 10 - - 0.0
20/11:00am 20.3 20.5 17.7 85 1.6 S 13 22 7 12 - - 0.0
20/10:30am 19.9 20.4 17.5 86 1.5 SSW 11 17 6 9 - - 0.0
20/10:00am 19.6 20.2 17.6 88 1.2 SSW 11 20 6 11 - - 0.0
20/09:30am 19.6 21.0 17.7 89 1.2 SSW 7 15 4 8 - - 0.0
20/09:00am 19.3 19.9 17.8 91 0.9 SSW 11 19 6 10 - - 4.8
20/08:30am 19.0 19.7 18.0 94 0.6 S 11 15 6 8 - - 4.8
20/08:12am 18.9 20.3 17.7 93 0.7 SSE 7 13 4 7 - - 4.8
20/08:00am 18.8 20.4 17.8 94 0.6 SSE 6 9 3 5 - - 4.8
20/07:30am 18.6 19.4 17.4 93 0.7 S 9 17 5 9 - - 4.6
20/07:00am 18.5 19.2 17.0 91 0.9 S 9 15 5 8 - - 4.4
20/06:30am 18.6 18.9 17.1 91 0.9 SSW 11 17 6 9 - - 4.2
20/06:00am 18.7 19.4 17.0 90 1.0 S 9 15 5 8 - - 4.0
20/05:53am 18.8 19.8 16.9 89 1.1 SSW 7 13 4 7 - - 4.0
20/05:30am 18.9 19.2 16.9 88 1.2 S 11 19 6 10 - - 4.0
20/05:28am 19.0 19.2 16.8 87 1.3 S 11 19 6 10 - - 4.0
20/05:12am 19.2 21.6 17.0 87 1.3 CALM 0 7 0 4 - - 4.0
20/05:00am 19.2 19.9 17.0 87 1.3 SSW 9 17 5 9 - - 3.8
20/04:32am 19.2 19.6 17.2 88 1.2 S 11 19 6 10 - - 3.8
20/04:30am 19.1 19.4 16.9 87 1.3 S 11 19 6 10 - - 3.8
20/04:14am 19.3 20.4 17.1 87 1.3 S 7 17 4 9 - - 3.8
20/04:00am 19.3 19.9 16.9 86 1.5 SSW 9 17 5 9 - - 3.6
20/03:30am 19.3 20.5 17.3 88 1.2 SSW 7 20 4 11 - - 3.6
20/03:05am 19.2 20.0 17.3 89 1.2 SSW 9 13 5 7 - - 3.6
20/03:00am 19.2 20.3 17.2 88 1.2 SSW 7 13 4 7 - - 3.6
20/02:45am 19.2 20.4 17.3 89 1.2 S 7 13 4 7 - - 3.6
20/02:30am 19.2 20.4 17.3 89 1.2 SSW 7 15 4 8 - - 3.6
20/02:12am 19.1 19.9 17.4 90 1.0 SSW 9 13 5 7 - - 3.6
20/02:00am 19.1 19.6 17.4 90 1.0 SSW 11 15 6 8 - - 3.6
20/01:49am 19.1 19.9 17.4 90 1.0 SSW 9 15 5 8 - - 3.6
20/01:46am 19.1 20.0 17.6 91 0.9 SSW 9 15 5 8 - - 3.6
20/01:30am 19.1 19.7 17.6 91 0.9 SW 11 15 6 8 - - 3.4
20/01:00am 19.1 20.1 17.8 92 0.8 SSW 9 17 5 9 - - 3.2
20/12:30am 19.2 20.3 17.9 92 0.8 SSW 9 19 5 10 - - 3.0
20/12:00am 19.2 20.7 18.0 93 0.7 SSW 7 13 4 7 - - 2.4
 
Date/Time
EDT
Temp
°C
App
Temp
°C
Dew
Point
°C
Rel
Hum
%
Delta-T
°C
Wind Press
QNH
hPa
Press
MSL
hPa
Rain since
9am
mm
Dir  Spd
km/h
Gust
km/h
Spd
kts
Gust
kts
19/11:30pm 19.3 20.4 18.0 92 0.8 SSW 9 15 5 8 - - 1.8
19/11:06pm 19.5 20.2 18.0 91 0.9 SSW 11 20 6 11 - - 1.2
19/11:00pm 19.4 20.0 17.7 90 1.0 SSW 11 19 6 10 - - 1.2
19/10:30pm 19.4 19.6 17.7 90 1.0 SSW 13 20 7 11 - - 1.2
19/10:26pm 19.5 19.8 18.0 91 0.9 SSW 13 20 7 11 - - 1.2
19/10:00pm 19.3 19.6 18.0 92 0.8 SSW 13 22 7 12 - - 1.0
19/09:30pm 19.8 19.3 17.8 88 1.2 S 17 28 9 15 - - 0.0
19/09:10pm 20.0 19.4 17.6 86 1.5 SSW 17 28 9 15 - - 0.0
19/09:00pm 20.1 18.9 17.5 85 1.6 S 20 32 11 17 - - 0.0
19/08:30pm 20.8 20.0 17.2 80 2.2 S 17 28 9 15 - - 0.0
19/08:00pm 21.2 20.7 17.0 77 2.6 S 15 28 8 15 - - 0.0
19/07:30pm 21.3 19.9 17.1 77 2.6 S 20 35 11 19 - - 0.0
19/07:00pm 21.7 20.4 17.3 76 2.7 SSE 20 32 11 17 - - 0.0
19/06:30pm 22.2 20.3 17.6 75 2.8 SSE 24 39 13 21 - - 0.0
19/06:00pm 22.8 21.5 17.3 71 3.4 SSE 20 33 11 18 - - 0.0
19/05:30pm 23.4 21.5 17.6 70 3.6 S 24 43 13 23 - - 0.0
19/05:15pm 23.6 20.8 17.3 67 3.9 SSE 28 46 15 25 - - 0.0
19/05:00pm 23.3 20.7 17.7 71 3.5 SSE 28 43 15 23 - - 0.0
19/04:30pm 23.2 20.4 17.4 70 3.6 SSE 28 46 15 25 - - 0.0
19/04:00pm 23.7 20.6 17.4 68 3.9 SSE 30 50 16 27 - - 0.0
19/03:30pm 23.2 19.4 17.2 69 3.7 SSE 33 52 18 28 - - 0.0
19/03:00pm 23.4 19.8 17.2 68 3.8 SSE 32 54 17 29 - - 0.0
19/02:30pm 24.6 20.8 17.3 64 4.5 SSE 33 57 18 31 - - 0.0
19/02:04pm 25.2 21.8 17.7 63 4.7 SSE 32 50 17 27 - - 0.0
19/02:00pm 25.0 21.4 17.7 64 4.6 SSE 33 50 18 27 - - 0.0
19/01:30pm 25.2 22.3 17.9 64 4.6 SSE 30 52 16 28 - - 0.0
19/01:18pm 24.5 20.6 17.0 63 4.6 SSE 33 52 18 28 - - 0.0
19/01:00pm 24.7 21.0 17.4 64 4.5 SSE 33 50 18 27 - - 0.0
19/12:56pm 24.8 21.3 17.5 64 4.6 SSE 32 50 17 27 - - 0.0
19/12:30pm 25.3 23.0 17.7 62 4.8 SSE 26 46 14 25 - - 0.0
19/12:22pm 25.3 22.8 18.0 64 4.6 SSE 28 46 15 25 - - 0.0
19/12:00pm 25.2 22.4 18.2 65 4.4 SSE 30 43 16 23 - - 0.0
19/11:30am 26.1 24.8 18.2 61 5.0 SSE 22 35 12 19 - - 0.0
19/11:00am 26.4 24.9 17.7 58 5.5 SSE 22 35 12 19 - - 0.0
19/10:30am 28.9 29.7 18.1 52 6.9 SE 11 19 6 10 - - 0.0
19/10:00am 28.5 29.3 17.4 51 7.0 S 9 15 5 8 - - 0.0
19/09:30am 27.7 30.3 17.5 53 6.4 CALM 0 6 0 3 - - 0.0
19/09:00am 26.4 29.2 18.0 60 5.3 CALM 0 7 0 4 - - 0.2
19/08:30am 25.3 27.9 19.2 69 3.9 N 4 11 2 6 - - 0.2
19/08:00am 23.3 25.2 19.0 77 2.7 NNW 7 13 4 7 - - 0.2
19/07:30am 22.4 24.0 19.2 82 2.0 NNW 9 13 5 7 - - 0.2
19/07:00am 22.3 24.5 19.1 82 2.0 NNE 6 9 3 5 - - 0.2
19/06:30am 22.3 24.2 18.9 81 2.1 NNE 7 11 4 6 - - 0.2
19/06:00am 22.4 23.9 19.0 81 2.2 NE 9 17 5 9 - - 0.2
19/05:30am 22.4 23.9 19.0 81 2.2 NE 9 13 5 7 - - 0.2
19/05:00am 22.8 24.6 18.8 78 2.5 NNE 7 15 4 8 - - 0.2
19/04:30am 22.8 24.9 19.4 81 2.2 ENE 7 13 4 7 - - 0.2
19/04:00am 22.7 22.2 19.9 84 1.8 E 22 30 12 16 - - 0.2
19/03:30am 23.0 24.1 19.6 81 2.2 SE 13 17 7 9 - - 0.2
19/03:00am 23.2 24.5 19.4 79 2.4 SSW 11 19 6 10 - - 0.2
19/02:30am 23.1 24.4 19.3 79 2.4 SSW 11 19 6 10 - - 0.2
19/02:00am 23.2 24.3 18.9 77 2.7 SW 11 15 6 8 - - 0.2
19/01:30am 23.3 24.3 18.6 75 3.0 SE 11 17 6 9 - - 0.2
19/01:00am 23.7 24.8 18.1 71 3.5 SSE 9 13 5 7 - - 0.2
19/12:30am 23.7 24.1 18.1 71 3.5 SE 13 19 7 10 - - 0.2
19/12:00am 24.1 23.2 16.9 64 4.4 E 17 24 9 13 - - 0.2
 
Date/Time
EDT
Temp
°C
App
Temp
°C
Dew
Point
°C
Rel
Hum
%
Delta-T
°C
Wind Press
QNH
hPa
Press
MSL
hPa
Rain since
9am
mm
Dir  Spd
km/h
Gust
km/h
Spd
kts
Gust
kts
18/11:30pm 24.1 25.8 16.1 61 4.9 E 2 7 1 4 - - 0.2
18/11:00pm 24.7 23.9 17.2 63 4.7 SSW 17 26 9 14 - - 0.2
18/10:30pm 22.7 24.9 17.4 72 3.3 E 2 7 1 4 - - 0.2
18/10:00pm 23.9 26.3 16.9 65 4.3 CALM 0 13 0 7 - - 0.2
18/09:30pm 25.0 26.8 16.4 59 5.3 ESE 2 11 1 6 - - 0.2
18/09:00pm 25.2 25.9 16.1 57 5.6 NNE 7 13 4 7 - - 0.2

Other formats

Comma delimited format used in spreadsheet applications
http://www.bom.gov.au/fwo/IDN60801/IDN60801.94766.axf

JavaScript Object Notation format (JSON) in row-major order
http://www.bom.gov.au/fwo/IDN60801/IDN60801.94766.json

Data quality

Most of these data are generated automatically and are frequently updated. Quality checks on data are not normally performed. It is possible for incorrect values to appear. Refer to information at About Latest Weather Observations and please check the disclaimer before using these data.